createdAt,value
2023-05-10T00:01:38.812Z,1.00
2023-05-10T00:03:42.277Z,1.00
2023-05-10T00:05:45.152Z,1.00
2023-05-10T00:07:47.936Z,1.00
2023-05-10T00:09:50.688Z,1.00
2023-05-10T00:11:54.762Z,1.00
2023-05-10T00:13:57.524Z,1.00
2023-05-10T00:16:00.436Z,1.00
2023-05-10T00:18:03.307Z,1.00
2023-05-10T00:20:07.001Z,1.00
2023-05-10T00:22:09.749Z,1.00
2023-05-10T00:24:12.554Z,1.00
2023-05-10T00:26:15.883Z,1.00
2023-05-10T00:28:20.080Z,1.00
2023-05-10T00:30:22.911Z,1.00
2023-05-10T00:32:25.703Z,1.00
2023-05-10T00:34:28.502Z,1.00
2023-05-10T00:36:32.137Z,1.00
2023-05-10T00:38:35.180Z,1.00
2023-05-10T00:40:37.993Z,1.00
2023-05-10T00:42:41.116Z,1.00
2023-05-10T00:44:45.226Z,1.00
2023-05-10T00:46:48.032Z,1.00
2023-05-10T00:48:50.772Z,1.00
2023-05-10T00:50:53.694Z,1.00
2023-05-10T00:52:56.441Z,1.00
2023-05-10T00:54:59.325Z,1.00
2023-05-10T00:57:02.307Z,1.00
2023-05-10T00:59:05.070Z,1.00
2023-05-10T01:01:09.217Z,1.00
2023-05-10T01:03:12.407Z,1.00
2023-05-10T01:05:15.420Z,11.10
2023-05-10T01:07:18.240Z,13.30
2023-05-10T01:09:21.022Z,10.80
2023-05-10T01:11:23.903Z,13.80
2023-05-10T01:13:35.588Z,10.70
2023-05-10T01:15:38.397Z,10.00
2023-05-10T01:17:43.234Z,3.30
2023-05-10T01:19:46.034Z,11.60
2023-05-10T01:21:51.764Z,15.10
2023-05-10T01:24:11.980Z,11.60
2023-05-10T01:26:48.909Z,2.10
2023-05-10T01:29:06.310Z,5.30
2023-05-10T01:31:20.815Z,1.00
2023-05-10T01:33:25.886Z,1.00
2023-05-10T01:35:31.621Z,1.00
2023-05-10T01:37:39.155Z,1.00
2023-05-10T01:39:45.241Z,1.00
2023-05-10T01:41:51.766Z,1.00
2023-05-10T01:43:57.898Z,1.00
2023-05-10T01:46:05.621Z,1.00
2023-05-10T01:48:09.023Z,1.00
2023-05-10T01:50:17.462Z,1.00
2023-05-10T01:52:21.964Z,1.00
2023-05-10T01:54:24.847Z,1.00
2023-05-10T01:56:28.341Z,1.00
2023-05-10T01:58:32.767Z,1.00
2023-05-10T02:00:36.068Z,1.00
2023-05-10T02:02:39.507Z,1.00
2023-05-10T02:04:42.321Z,1.00
2023-05-10T02:06:46.443Z,1.00
2023-05-10T02:08:49.217Z,1.00
2023-05-10T02:10:56.492Z,1.00
2023-05-10T02:13:01.051Z,1.00
2023-05-10T02:15:04.701Z,1.00
2023-05-10T02:17:07.654Z,1.00
2023-05-10T02:19:10.533Z,1.00
2023-05-10T02:21:13.301Z,1.00
2023-05-10T02:23:17.896Z,1.00
2023-05-10T02:25:21.287Z,1.00
2023-05-10T02:27:24.148Z,1.00
2023-05-10T02:29:27.100Z,1.00
2023-05-10T02:31:30.011Z,1.00
2023-05-10T02:33:32.841Z,1.00
2023-05-10T02:35:35.680Z,1.00
2023-05-10T02:37:38.780Z,1.00
2023-05-10T02:39:44.812Z,1.00
2023-05-10T02:41:47.574Z,1.00
2023-05-10T02:43:51.290Z,1.00
2023-05-10T02:45:54.241Z,1.00
2023-05-10T02:47:57.100Z,1.00
2023-05-10T02:49:59.915Z,1.00
2023-05-10T02:52:03.312Z,1.00
2023-05-10T02:54:11.405Z,1.00
2023-05-10T02:56:18.190Z,1.00
2023-05-10T02:58:21.815Z,1.00
2023-05-10T03:00:24.626Z,1.00
2023-05-10T03:02:27.424Z,1.00
2023-05-10T03:04:30.293Z,1.00
2023-05-10T03:06:33.094Z,2.40
2023-05-10T03:08:35.901Z,2.00
2023-05-10T03:10:43.299Z,2.30
2023-05-10T03:12:58.915Z,1.00
2023-05-10T03:15:05.692Z,3.90
2023-05-10T03:17:10.941Z,6.30
2023-05-10T03:19:16.645Z,7.90
2023-05-10T03:21:20.125Z,4.50
2023-05-10T03:23:25.274Z,5.70
2023-05-10T03:25:28.173Z,4.50
2023-05-10T03:27:30.949Z,3.60
2023-05-10T03:29:35.075Z,5.60
2023-05-10T03:31:37.880Z,4.00
2023-05-10T03:33:48.455Z,4.50
2023-05-10T03:35:51.404Z,8.60
2023-05-10T03:37:54.194Z,8.10
2023-05-10T03:39:56.972Z,6.00
2023-05-10T03:41:59.809Z,6.90
2023-05-10T03:44:02.617Z,9.20
2023-05-10T03:46:06.799Z,9.90
2023-05-10T03:48:09.610Z,13.00
2023-05-10T03:50:12.493Z,13.60
2023-05-10T03:52:15.287Z,15.10
2023-05-10T03:54:18.052Z,17.50
2023-05-10T03:56:21.721Z,19.60
2023-05-10T03:58:24.517Z,17.80
2023-05-10T04:00:27.384Z,17.20
2023-05-10T04:02:32.047Z,18.90
2023-05-10T04:04:34.894Z,20.20
2023-05-10T04:06:37.713Z,16.90
2023-05-10T04:08:40.701Z,16.30
2023-05-10T04:10:43.554Z,26.40
2023-05-10T04:12:46.358Z,31.10
2023-05-10T04:14:49.198Z,30.60
2023-05-10T04:16:52.014Z,31.60
2023-05-10T04:18:56.159Z,31.50
2023-05-10T04:20:58.956Z,31.70
2023-05-10T04:23:01.750Z,31.90
2023-05-10T04:25:05.326Z,31.90
2023-05-10T04:27:08.095Z,38.70
2023-05-10T04:29:10.911Z,44.90
2023-05-10T04:31:13.757Z,96.90
2023-05-10T04:33:16.559Z,99.90
2023-05-10T04:35:20.738Z,99.90
2023-05-10T04:37:23.985Z,99.90
2023-05-10T04:39:26.802Z,99.90
2023-05-10T04:41:29.709Z,99.90
2023-05-10T04:43:32.531Z,99.90
2023-05-10T04:45:35.292Z,99.90
2023-05-10T04:47:38.716Z,99.90
2023-05-10T04:49:41.495Z,99.90
2023-05-10T04:51:45.636Z,99.90
2023-05-10T04:54:01.469Z,99.90
2023-05-10T04:56:08.413Z,99.90
2023-05-10T04:58:11.213Z,99.90
2023-05-10T05:00:14.930Z,99.90
2023-05-10T05:02:17.899Z,99.90
2023-05-10T05:04:20.701Z,99.90
2023-05-10T05:06:23.500Z,99.90
2023-05-10T05:08:27.902Z,99.90
2023-05-10T05:10:31.001Z,99.90
2023-05-10T05:12:33.883Z,99.90
2023-05-10T05:14:36.790Z,99.90
2023-05-10T05:16:39.719Z,99.90
2023-05-10T05:18:42.788Z,99.90
2023-05-10T05:20:45.802Z,99.90
2023-05-10T05:22:48.862Z,99.90
2023-05-10T05:24:53.258Z,99.90
2023-05-10T05:26:56.398Z,99.90
2023-05-10T05:28:59.387Z,99.90
2023-05-10T05:31:02.269Z,99.90
2023-05-10T05:33:05.201Z,99.90
2023-05-10T05:35:08.570Z,99.90
2023-05-10T05:37:15.086Z,99.90
2023-05-10T05:39:18.067Z,99.90
2023-05-10T05:41:22.473Z,99.90
2023-05-10T05:43:25.708Z,99.90
2023-05-10T05:45:28.580Z,99.90
2023-05-10T05:47:31.390Z,1.00
2023-05-10T05:49:34.356Z,1.00
2023-05-10T05:51:37.161Z,1.00
2023-05-10T05:53:39.963Z,1.00
2023-05-10T05:55:42.735Z,1.00
2023-05-10T05:57:46.872Z,1.00
2023-05-10T05:59:49.654Z,1.00
2023-05-10T06:01:52.476Z,1.00
2023-05-10T06:03:55.338Z,1.00
2023-05-10T06:05:58.160Z,1.00
2023-05-10T06:08:02.019Z,1.00
2023-05-10T06:10:05.325Z,1.00
2023-05-10T06:12:08.220Z,1.00
2023-05-10T06:14:12.559Z,1.00
2023-05-10T06:16:15.410Z,1.00
2023-05-10T06:18:18.337Z,1.00
2023-05-10T06:20:21.127Z,1.00
2023-05-10T06:22:23.920Z,1.00
2023-05-10T06:24:28.054Z,1.00
2023-05-10T06:26:30.916Z,1.00
2023-05-10T06:28:34.486Z,1.00
2023-05-10T06:30:39.425Z,1.00
2023-05-10T06:32:42.262Z,1.00
2023-05-10T06:34:45.655Z,1.00
2023-05-10T06:36:48.427Z,1.00
2023-05-10T06:38:52.218Z,1.00
2023-05-10T06:40:55.018Z,1.00
2023-05-10T06:42:57.812Z,1.00
2023-05-10T06:45:00.630Z,1.00
2023-05-10T06:47:04.782Z,1.00
2023-05-10T06:49:07.580Z,1.00
2023-05-10T06:51:10.368Z,1.00
2023-05-10T06:53:14.215Z,1.00
2023-05-10T06:55:17.213Z,1.00
2023-05-10T06:57:31.198Z,1.00
2023-05-10T06:59:34.866Z,1.00
2023-05-10T07:01:37.819Z,1.00
2023-05-10T07:03:42.276Z,1.00
2023-05-10T07:05:45.189Z,1.00
2023-05-10T07:07:47.986Z,1.00
2023-05-10T07:09:51.091Z,15.50
2023-05-10T07:11:53.888Z,92.20
2023-05-10T07:13:56.691Z,99.90
2023-05-10T07:15:59.579Z,99.90
2023-05-10T07:18:02.513Z,99.90
2023-05-10T07:20:08.338Z,99.90
2023-05-10T07:22:11.130Z,99.90
2023-05-10T07:24:13.962Z,99.90
2023-05-10T07:26:16.904Z,99.90
2023-05-10T07:28:19.803Z,99.90
2023-05-10T07:30:22.795Z,99.90
2023-05-10T07:32:25.759Z,99.90
2023-05-10T07:34:29.155Z,99.90
2023-05-10T07:36:33.446Z,99.90
2023-05-10T07:40:39.138Z,99.90
2023-05-10T07:42:41.913Z,99.90
2023-05-10T07:44:44.714Z,99.90
2023-05-10T07:46:47.540Z,99.90
2023-05-10T07:48:50.332Z,99.90
2023-05-10T07:50:53.130Z,99.90
2023-05-10T07:52:57.489Z,99.90
2023-05-10T07:55:00.264Z,99.90
2023-05-10T07:57:03.046Z,99.90
2023-05-10T07:59:07.309Z,99.90
2023-05-10T08:01:10.095Z,99.90
2023-05-10T08:03:13.070Z,99.90
2023-05-10T08:05:16.425Z,99.90
2023-05-10T08:07:19.512Z,99.90
2023-05-10T08:09:25.131Z,99.90
2023-05-10T08:11:28.800Z,99.90
2023-05-10T08:13:32.383Z,99.90
2023-05-10T08:15:35.343Z,99.90
2023-05-10T08:17:38.294Z,99.90
2023-05-10T08:19:41.114Z,99.90
2023-05-10T08:21:44.057Z,99.90
2023-05-10T08:23:46.850Z,99.90
2023-05-10T08:25:50.988Z,99.90
2023-05-10T08:27:53.773Z,99.90
2023-05-10T08:29:56.569Z,99.90
2023-05-10T08:31:59.359Z,99.90
2023-05-10T08:34:02.268Z,99.90
2023-05-10T08:36:05.373Z,99.90
2023-05-10T08:38:08.214Z,99.90
2023-05-10T08:40:11.904Z,99.90
2023-05-10T08:42:16.081Z,99.90
2023-05-10T08:44:19.254Z,99.90
2023-05-10T08:46:23.181Z,99.90
2023-05-10T08:48:26.683Z,99.90
2023-05-10T08:50:29.467Z,99.90
2023-05-10T08:52:32.417Z,99.90
2023-05-10T08:54:35.381Z,99.90
2023-05-10T08:56:38.393Z,99.90
2023-05-10T08:58:42.526Z,99.90
2023-05-10T09:00:45.365Z,99.90
2023-05-10T09:02:48.193Z,99.90
2023-05-10T09:04:51.137Z,99.90
2023-05-10T09:06:53.982Z,99.90
2023-05-10T09:08:56.760Z,99.90
2023-05-10T09:10:59.549Z,99.90
2023-05-10T09:13:02.429Z,99.90
2023-05-10T09:15:07.824Z,99.90
2023-05-10T09:17:11.063Z,99.90
2023-05-10T09:19:13.994Z,99.90
2023-05-10T09:21:16.863Z,99.90
2023-05-10T09:23:19.642Z,99.90
2023-05-10T09:25:23.592Z,99.90
2023-05-10T09:27:28.830Z,99.90
2023-05-10T09:29:41.240Z,99.90
2023-05-10T09:31:51.846Z,99.90
2023-05-10T09:33:54.949Z,99.90
2023-05-10T09:35:57.728Z,99.90
2023-05-10T09:38:03.171Z,99.90
2023-05-10T09:40:13.088Z,99.90
2023-05-10T09:42:15.930Z,99.90
2023-05-10T09:44:19.863Z,99.90
2023-05-10T09:46:23.529Z,99.90
2023-05-10T09:48:27.740Z,99.90
2023-05-10T09:50:30.629Z,55.40
2023-05-10T09:52:33.458Z,97.60
2023-05-10T09:54:36.919Z,58.40
2023-05-10T09:56:41.139Z,36.70
2023-05-10T09:58:43.924Z,1.00
2023-05-10T10:00:48.606Z,1.00
2023-05-10T10:02:56.667Z,1.00
2023-05-10T10:05:01.885Z,1.00
2023-05-10T10:07:05.520Z,1.00
2023-05-10T10:09:08.901Z,1.00
2023-05-10T10:11:11.689Z,1.00
2023-05-10T10:13:14.684Z,1.00
2023-05-10T10:15:17.693Z,1.00
2023-05-10T10:17:21.592Z,1.00
2023-05-10T10:19:24.842Z,1.00
2023-05-10T10:21:29.004Z,1.00
2023-05-10T10:23:31.795Z,1.00
2023-05-10T10:25:34.615Z,1.00
2023-05-10T10:27:43.192Z,1.00
2023-05-10T10:29:51.948Z,1.00
2023-05-10T10:32:00.466Z,1.00
2023-05-10T10:34:06.270Z,1.00
2023-05-10T10:36:09.062Z,1.00
2023-05-10T10:38:13.864Z,1.00
2023-05-10T10:40:30.462Z,1.00
2023-05-10T10:42:46.223Z,1.00
2023-05-10T10:44:48.984Z,1.00
2023-05-10T10:47:01.567Z,1.00
2023-05-10T10:49:11.127Z,1.00
2023-05-10T10:51:14.938Z,1.00
2023-05-10T10:53:19.095Z,1.00
2023-05-10T10:55:23.450Z,1.00
2023-05-10T10:57:27.512Z,99.90
2023-05-10T10:59:30.369Z,99.90
2023-05-10T11:01:34.926Z,99.90
2023-05-10T11:03:37.763Z,99.90
2023-05-10T11:05:42.241Z,1.00
2023-05-10T11:07:53.932Z,99.90
2023-05-10T11:09:58.208Z,99.90
2023-05-10T11:12:01.384Z,99.90
2023-05-10T11:14:05.501Z,99.90
2023-05-10T11:16:15.972Z,99.90
2023-05-10T11:18:19.730Z,99.90
2023-05-10T11:20:25.762Z,99.90
2023-05-10T11:22:29.263Z,99.90
2023-05-10T11:24:32.053Z,99.90
2023-05-10T11:26:36.740Z,99.90
2023-05-10T11:28:44.295Z,99.90
2023-05-10T11:30:47.245Z,99.90
2023-05-10T11:32:50.072Z,99.90
2023-05-10T11:34:52.890Z,99.90
2023-05-10T11:36:56.174Z,99.90
2023-05-10T11:38:59.093Z,99.90
2023-05-10T11:41:01.852Z,99.90
2023-05-10T11:43:06.592Z,99.90
2023-05-10T11:45:10.431Z,99.90
2023-05-10T11:47:13.737Z,99.90
2023-05-10T11:49:16.526Z,99.90
2023-05-10T11:51:22.313Z,99.90
2023-05-10T11:53:25.913Z,99.90
2023-05-10T11:55:31.099Z,99.90
2023-05-10T11:57:33.914Z,99.90
2023-05-10T11:59:39.195Z,99.90
2023-05-10T12:01:43.707Z,99.90
2023-05-10T12:03:46.566Z,99.90
2023-05-10T12:05:49.516Z,99.90
2023-05-10T12:07:52.293Z,99.90
2023-05-10T12:10:08.591Z,99.90
2023-05-10T12:12:11.660Z,99.90
2023-05-10T12:14:14.434Z,99.90
2023-05-10T12:16:19.889Z,99.90
2023-05-10T12:18:25.432Z,99.90
2023-05-10T12:20:29.537Z,99.90
2023-05-10T12:22:32.315Z,99.90
2023-05-10T12:24:36.932Z,99.90
2023-05-10T12:26:39.759Z,99.90
2023-05-10T12:28:42.551Z,99.90
2023-05-10T12:30:45.468Z,99.90
2023-05-10T12:32:49.641Z,99.90
2023-05-10T12:34:54.457Z,99.90
2023-05-10T12:36:57.396Z,99.90
2023-05-10T12:39:04.579Z,99.90
2023-05-10T12:41:09.327Z,99.90
2023-05-10T12:43:12.248Z,99.90
2023-05-10T12:45:15.058Z,99.90
2023-05-10T12:47:17.822Z,99.90
2023-05-10T12:49:22.089Z,99.90
2023-05-10T12:51:24.858Z,99.90
2023-05-10T12:53:27.873Z,99.90
2023-05-10T12:55:30.705Z,99.90
2023-05-10T12:57:33.490Z,99.90
2023-05-10T12:59:38.082Z,99.90
2023-05-10T13:01:41.366Z,99.90
2023-05-10T13:03:44.587Z,99.90
2023-05-10T13:05:48.763Z,99.90
2023-05-10T13:07:51.546Z,99.90
2023-05-10T13:09:54.331Z,99.90
2023-05-10T13:11:57.157Z,99.90
2023-05-10T13:14:00.409Z,99.90
2023-05-10T13:16:03.226Z,99.90
2023-05-10T13:18:06.190Z,99.90
2023-05-10T13:20:10.350Z,99.90
2023-05-10T13:22:15.949Z,99.90
2023-05-10T13:24:21.470Z,99.90
2023-05-10T13:26:24.265Z,99.90
2023-05-10T13:28:27.514Z,99.90
2023-05-10T13:30:30.740Z,99.90
2023-05-10T13:32:33.548Z,99.90
2023-05-10T13:34:36.711Z,99.90
2023-05-10T13:36:39.744Z,99.90
2023-05-10T13:38:43.863Z,99.90
2023-05-10T13:40:46.658Z,99.90
2023-05-10T13:42:49.436Z,99.90
2023-05-10T13:44:52.314Z,99.90
2023-05-10T13:46:55.217Z,99.90
2023-05-10T13:48:58.081Z,99.90
2023-05-10T13:51:00.859Z,99.90
2023-05-10T13:53:03.695Z,99.90
2023-05-10T13:55:08.612Z,99.90
2023-05-10T13:57:13.664Z,99.90
2023-05-10T13:59:16.491Z,99.90
2023-05-10T14:01:19.395Z,99.90
2023-05-10T14:03:22.512Z,99.90
2023-05-10T14:05:26.421Z,99.90
2023-05-10T14:07:29.755Z,99.90
2023-05-10T14:09:32.525Z,99.90
2023-05-10T14:11:36.674Z,99.90
2023-05-10T14:13:39.486Z,99.90
2023-05-10T14:15:42.326Z,99.90
2023-05-10T14:17:45.174Z,99.90
2023-05-10T14:19:48.021Z,99.90
2023-05-10T14:21:50.866Z,99.90
2023-05-10T14:23:53.838Z,99.90
2023-05-10T14:25:56.712Z,99.90
2023-05-10T14:28:01.236Z,99.90
2023-05-10T14:30:04.154Z,99.90
2023-05-10T14:32:07.568Z,99.90
2023-05-10T14:34:10.424Z,99.90
2023-05-10T14:36:13.485Z,99.90
2023-05-10T14:38:16.314Z,99.90
2023-05-10T14:40:19.769Z,99.90
2023-05-10T14:42:22.564Z,99.90
2023-05-10T14:44:27.200Z,99.90
2023-05-10T14:46:30.897Z,99.90
2023-05-10T14:48:33.704Z,99.90
2023-05-10T14:50:37.484Z,99.90
2023-05-10T14:52:40.488Z,99.90
2023-05-10T14:54:43.275Z,99.90
2023-05-10T14:56:46.270Z,99.90
2023-05-10T14:58:49.062Z,99.90
2023-05-10T15:00:53.170Z,99.90
2023-05-10T15:02:56.296Z,99.90
2023-05-10T15:04:59.582Z,99.90
2023-05-10T15:07:02.866Z,99.90
2023-05-10T15:09:05.782Z,99.90
2023-05-10T15:11:08.662Z,99.90
2023-05-10T15:13:11.452Z,99.90
2023-05-10T15:15:14.274Z,99.90
2023-05-10T15:17:18.611Z,99.90
2023-05-10T15:19:22.154Z,99.90
2023-05-10T15:21:24.948Z,99.90
2023-05-10T15:23:28.066Z,99.90
2023-05-10T15:25:30.822Z,99.90
2023-05-10T15:27:33.628Z,99.90
2023-05-10T15:29:36.814Z,99.90
2023-05-10T15:31:40.655Z,99.90
2023-05-10T15:33:44.817Z,99.90
2023-05-10T15:35:47.689Z,99.90
2023-05-10T15:37:50.699Z,99.90
2023-05-10T15:39:54.287Z,99.90
2023-05-10T15:41:57.809Z,99.90
2023-05-10T15:44:00.738Z,99.90
2023-05-10T15:46:03.591Z,99.90
2023-05-10T15:48:06.799Z,99.90
2023-05-10T15:50:12.224Z,99.90
2023-05-10T15:52:15.259Z,99.90
2023-05-10T15:54:18.052Z,99.90
2023-05-10T15:56:20.805Z,99.90
2023-05-10T15:58:23.574Z,99.90
2023-05-10T16:00:26.374Z,99.90
2023-05-10T16:02:29.255Z,99.90
2023-05-10T16:04:32.130Z,99.90
2023-05-10T16:06:36.398Z,99.90
2023-05-10T16:08:39.245Z,99.90
2023-05-10T16:10:42.219Z,99.90
2023-05-10T16:12:45.022Z,99.90
2023-05-10T16:14:47.838Z,99.90
2023-05-10T16:16:51.370Z,99.90
2023-05-10T16:18:54.426Z,99.90
2023-05-10T16:20:57.212Z,99.90
2023-05-10T16:23:02.293Z,99.90
2023-05-10T16:25:05.680Z,99.90
2023-05-10T16:27:08.530Z,99.90
2023-05-10T16:29:11.290Z,99.90
2023-05-10T16:31:14.136Z,99.90
2023-05-10T16:33:17.669Z,99.90
2023-05-10T16:35:20.777Z,99.90
2023-05-10T16:37:23.686Z,99.90
2023-05-10T16:39:27.798Z,99.90
2023-05-10T16:41:30.721Z,99.90
2023-05-10T16:43:33.609Z,99.90
2023-05-10T16:45:36.403Z,99.90
2023-05-10T16:47:40.073Z,99.90
2023-05-10T16:49:42.859Z,99.90
2023-05-10T16:51:45.642Z,99.90
2023-05-10T16:53:48.403Z,99.90
2023-05-10T16:55:52.771Z,99.90
2023-05-10T16:57:59.619Z,99.90
2023-05-10T17:00:02.437Z,99.90
2023-05-10T17:02:05.292Z,99.90
2023-05-10T17:04:08.363Z,99.90
2023-05-10T17:06:11.996Z,1.00
2023-05-10T17:08:14.758Z,1.00
2023-05-10T17:10:17.688Z,1.00
2023-05-10T17:12:21.839Z,1.00
2023-05-10T17:14:24.648Z,1.00
2023-05-10T17:16:27.442Z,1.00
2023-05-10T17:18:30.305Z,1.00
2023-05-10T17:20:33.152Z,1.00
2023-05-10T17:22:36.002Z,1.00
2023-05-10T17:24:38.809Z,1.00
2023-05-10T17:26:41.578Z,1.00
2023-05-10T17:28:45.853Z,1.00
2023-05-10T17:30:48.628Z,1.00
2023-05-10T17:32:51.472Z,1.00
2023-05-10T17:34:54.256Z,1.00
2023-05-10T17:36:57.398Z,1.00
2023-05-10T17:39:00.801Z,1.00
2023-05-10T17:41:03.572Z,1.00
2023-05-10T17:43:06.380Z,1.00
2023-05-10T17:45:11.666Z,1.00
2023-05-10T17:47:14.448Z,1.00
2023-05-10T17:49:17.211Z,1.00
2023-05-10T17:51:20.359Z,1.00
2023-05-10T17:53:23.128Z,1.00
2023-05-10T17:55:27.094Z,1.00
2023-05-10T17:57:29.908Z,1.00
2023-05-10T17:59:32.683Z,1.00
2023-05-10T18:01:36.855Z,1.00
2023-05-10T18:03:39.677Z,1.00
2023-05-10T18:05:42.515Z,1.00
2023-05-10T18:07:45.305Z,1.00
2023-05-10T18:09:48.127Z,1.00
2023-05-10T18:11:50.899Z,1.00
2023-05-10T18:13:54.122Z,1.00
2023-05-10T18:15:57.351Z,1.00
2023-05-10T18:18:02.853Z,1.00
2023-05-10T18:20:07.348Z,1.00
2023-05-10T18:22:11.255Z,1.00
2023-05-10T18:24:14.087Z,1.00
2023-05-10T18:26:18.121Z,1.00
2023-05-10T18:28:20.968Z,1.00
2023-05-10T18:30:23.977Z,1.00
2023-05-10T18:32:26.911Z,1.00
2023-05-10T18:34:31.045Z,1.00
2023-05-10T18:36:33.918Z,1.00
2023-05-10T18:38:37.151Z,1.00
2023-05-10T18:40:40.145Z,1.00
2023-05-10T18:42:43.020Z,1.00
2023-05-10T18:44:45.797Z,1.00
2023-05-10T18:46:48.637Z,1.00
2023-05-10T18:48:51.616Z,1.00
2023-05-10T18:50:55.750Z,1.00
2023-05-10T18:52:58.522Z,1.00
2023-05-10T18:55:01.283Z,1.00
2023-05-10T18:57:04.226Z,1.00
2023-05-10T18:59:06.973Z,1.00
2023-05-10T19:01:09.793Z,1.00
2023-05-10T19:03:12.578Z,1.00
2023-05-10T19:05:15.978Z,1.00
2023-05-10T19:07:20.416Z,1.00
2023-05-10T19:09:23.220Z,1.00
2023-05-10T19:11:26.333Z,1.00
2023-05-10T19:13:30.265Z,1.00
2023-05-10T19:15:33.061Z,1.00
2023-05-10T19:17:36.782Z,1.00
2023-05-10T19:19:39.822Z,1.00
2023-05-10T19:21:42.762Z,1.00
2023-05-10T19:23:48.216Z,1.10
2023-05-10T19:25:50.993Z,1.00
2023-05-10T19:27:53.799Z,1.00
2023-05-10T19:29:56.721Z,1.00
2023-05-10T19:32:00.488Z,1.00
2023-05-10T19:34:04.471Z,1.00
2023-05-10T19:36:09.154Z,1.00
2023-05-10T19:38:12.055Z,1.00
2023-05-10T19:40:17.293Z,1.00
2023-05-10T19:42:20.728Z,1.00
2023-05-10T19:44:24.624Z,1.00
2023-05-10T19:46:27.644Z,43.20
2023-05-10T19:48:30.511Z,26.80
2023-05-10T19:50:33.349Z,65.00
2023-05-10T19:52:36.261Z,83.40
2023-05-10T19:54:39.063Z,96.70
2023-05-10T19:56:43.226Z,99.90
2023-05-10T19:58:46.099Z,99.90
2023-05-10T20:00:48.959Z,99.90
2023-05-10T20:02:52.041Z,99.90
2023-05-10T20:04:54.840Z,99.90
2023-05-10T20:06:57.651Z,99.90
2023-05-10T20:09:00.417Z,99.90
2023-05-10T20:11:03.888Z,99.90
2023-05-10T20:13:08.237Z,99.90
2023-05-10T20:15:11.431Z,99.90
2023-05-10T20:17:14.202Z,99.90
2023-05-10T20:19:18.278Z,99.90
2023-05-10T20:21:22.324Z,99.90
2023-05-10T20:23:25.084Z,99.90
2023-05-10T20:25:27.885Z,99.90
2023-05-10T20:27:30.698Z,99.90
2023-05-10T20:29:34.946Z,99.90
2023-05-10T20:31:37.722Z,99.90
2023-05-10T20:33:40.552Z,99.90
2023-05-10T20:35:43.356Z,99.90
2023-05-10T20:37:48.313Z,99.90
2023-05-10T20:39:51.181Z,99.90
2023-05-10T20:41:54.617Z,99.90
2023-05-10T20:43:57.470Z,99.90
2023-05-10T20:46:05.297Z,99.90
2023-05-10T20:48:08.613Z,99.90
2023-05-10T20:50:12.015Z,99.90
2023-05-10T20:52:14.942Z,99.90
2023-05-10T20:54:17.686Z,99.90
2023-05-10T20:56:21.395Z,99.90
2023-05-10T20:58:24.186Z,99.90
2023-05-10T21:00:27.259Z,99.90
2023-05-10T21:02:31.453Z,99.90
2023-05-10T21:04:34.284Z,99.90
2023-05-10T21:06:37.103Z,99.90
2023-05-10T21:08:39.936Z,99.90
2023-05-10T21:10:42.741Z,99.90
2023-05-10T21:12:46.215Z,99.90
2023-05-10T21:14:48.955Z,99.90
2023-05-10T21:16:52.329Z,99.90
2023-05-10T21:18:56.490Z,99.90
2023-05-10T21:20:59.824Z,99.90
2023-05-10T21:23:02.676Z,99.90
2023-05-10T21:25:06.262Z,99.90
2023-05-10T21:27:09.112Z,99.90
2023-05-10T21:29:11.911Z,99.90
2023-05-10T21:31:14.724Z,99.90
2023-05-10T21:33:17.556Z,99.90
2023-05-10T21:35:21.800Z,99.90
2023-05-10T21:37:24.575Z,99.90
2023-05-10T21:39:27.376Z,99.90
2023-05-10T21:41:30.153Z,99.90
2023-05-10T21:43:32.948Z,99.90
2023-05-10T21:45:36.491Z,99.90
2023-05-10T21:47:39.486Z,99.90
2023-05-10T21:49:42.330Z,99.90
2023-05-10T21:51:47.272Z,99.90
2023-05-10T21:53:50.088Z,99.90
2023-05-10T21:55:55.127Z,99.90
2023-05-10T21:57:58.635Z,99.90
2023-05-10T22:00:01.409Z,99.90
2023-05-10T22:02:04.208Z,99.90
2023-05-10T22:04:07.015Z,99.90
2023-05-10T22:06:09.773Z,99.90
2023-05-10T22:08:13.916Z,99.90
2023-05-10T22:10:16.966Z,99.90
2023-05-10T22:12:19.956Z,99.90
2023-05-10T22:14:23.026Z,99.90
2023-05-10T22:16:25.888Z,99.90
2023-05-10T22:18:29.008Z,99.90
2023-05-10T22:20:31.810Z,99.90
2023-05-10T22:22:34.593Z,99.90
2023-05-10T22:24:38.713Z,99.90
2023-05-10T22:26:41.508Z,99.90
2023-05-10T22:28:44.269Z,99.90
2023-05-10T22:30:48.208Z,99.90
2023-05-10T22:32:51.062Z,99.90
2023-05-10T22:34:53.865Z,99.90
2023-05-10T22:36:56.621Z,99.90
2023-05-10T22:38:59.435Z,99.90
2023-05-10T22:41:03.595Z,99.90
2023-05-10T22:43:06.370Z,99.90
2023-05-10T22:45:10.330Z,99.90
2023-05-10T22:47:13.110Z,99.90
2023-05-10T22:49:15.993Z,99.90
2023-05-10T22:51:18.743Z,99.90
2023-05-10T22:53:21.580Z,99.90
2023-05-10T22:55:24.331Z,99.90
2023-05-10T22:57:28.488Z,99.90
2023-05-10T22:59:31.421Z,99.90
2023-05-10T23:01:34.198Z,99.90
2023-05-10T23:03:37.039Z,99.90
2023-05-10T23:05:39.803Z,99.90
2023-05-10T23:07:42.574Z,99.90
2023-05-10T23:09:45.938Z,99.90
2023-05-10T23:11:48.723Z,99.90
2023-05-10T23:13:52.960Z,99.90
2023-05-10T23:15:55.781Z,99.90
2023-05-10T23:18:00.963Z,99.90
2023-05-10T23:20:03.848Z,99.90
2023-05-10T23:22:06.628Z,99.90
2023-05-10T23:24:09.497Z,99.90
2023-05-10T23:26:12.513Z,99.90
2023-05-10T23:28:15.280Z,99.90
2023-05-10T23:30:19.964Z,99.90
2023-05-10T23:32:23.018Z,99.90
2023-05-10T23:34:25.904Z,99.90
2023-05-10T23:36:28.741Z,99.90
2023-05-10T23:38:31.501Z,99.90
2023-05-10T23:40:34.277Z,99.90
2023-05-10T23:42:37.182Z,99.90
2023-05-10T23:44:40.001Z,99.90
2023-05-10T23:46:44.110Z,99.90
2023-05-10T23:48:46.906Z,99.90
2023-05-10T23:50:49.675Z,99.90
2023-05-10T23:52:52.421Z,99.90
2023-05-10T23:54:55.226Z,99.90
2023-05-10T23:56:58.017Z,99.90
2023-05-10T23:59:00.794Z,99.90
